Terminal Aerodrome Forecast
Issued by NWS Bismarck, ND

Home | Current Version | Previous Version | Graphics & Text | Print | Product List | Glossary On
Versions: 1 2 3 4 5 6 7 8 9 10 11 12 13 14 15 16 17 18 19 20 21 22 23 24
000
FTUS43 KBIS 021726
TAFISN
TAF
KISN 021726Z 0218/0318 22006KT P6SM SCT009 BKN015 OVC035
      TEMPO 0218/0222 SCT013 OVC035
     FM030300 18005KT P6SM BKN040
     FM030600 18005KT P6SM SCT150
     FM031700 21008KT P6SM BKN070=

USA.gov is the U.S. government's official web portal to all federal, state and local government web resources and services.